KHB103 UHHH-UNOO
Flight info
| Callsign | KHB103 |
|---|---|
| Flight time | 5h 12m |
| Altitude | 40000 |
| Route | DIDEK2U DIDEK N992 GU G363 BRT B151 KOTIB W174 TISBU W176 ROVNO B151 KESED W240 KD A308 OSNAB G828 SZ B234 KOVEN KOVEN6B |
| Aircraft | A359/H-SDE2E3GHIJ3J4J5LM1ORWXY/LB1D1 |
Departure
| Time | 2026-04-27 04:11 |
|---|---|
| Airport | Khabarovsk Novy Airport (UHHH) |
Arrival
| Time | 2026-04-27 09:23 |
|---|---|
| Airport | Omsk Central Airport (UNOO) |
| Time | Latitude | Longitude | Altitude | Speed | Heading |
|---|---|---|---|---|---|
| 2026-04-27 04:00 | 48.52409 | 135.17382 | 252 ft | 0 kts | 312° |
| 2026-04-27 04:05 | 48.52415 | 135.17373 | 252 ft | 4 kts | 312° |
| 2026-04-27 04:05 | 48.52452 | 135.17341 | 252 ft | 7 kts | 351° |
| 2026-04-27 04:05 | 48.52511 | 135.17402 | 251 ft | 9 kts | 77° |
| 2026-04-27 04:06 | 48.52499 | 135.17447 | 251 ft | 7 kts | 129° |
| 2026-04-27 04:06 | 48.52448 | 135.17541 | 252 ft | 11 kts | 129° |
| 2026-04-27 04:06 | 48.52391 | 135.17625 | 252 ft | 13 kts | 137° |
| 2026-04-27 04:07 | 48.52313 | 135.17747 | 252 ft | 8 kts | 134° |
| 2026-04-27 04:07 | 48.52257 | 135.17780 | 253 ft | 9 kts | 186° |
| 2026-04-27 04:07 | 48.52117 | 135.17635 | 257 ft | 12 kts | 222° |
| 2026-04-27 04:08 | 48.52047 | 135.17540 | 257 ft | 15 kts | 223° |
| 2026-04-27 04:08 | 48.51992 | 135.17461 | 255 ft | 17 kts | 223° |
| 2026-04-27 04:08 | 48.51871 | 135.17295 | 250 ft | 19 kts | 222° |
| 2026-04-27 04:08 | 48.51803 | 135.17202 | 247 ft | 20 kts | 223° |
| 2026-04-27 04:09 | 48.51736 | 135.17109 | 245 ft | 10 kts | 222° |
| 2026-04-27 04:09 | 48.51665 | 135.17036 | 243 ft | 14 kts | 195° |
| 2026-04-27 04:09 | 48.51564 | 135.17122 | 244 ft | 13 kts | 137° |
| 2026-04-27 04:09 | 48.51519 | 135.17191 | 244 ft | 15 kts | 129° |
| 2026-04-27 04:10 | 48.51514 | 135.17325 | 245 ft | 13 kts | 60° |
| 2026-04-27 04:10 | 48.51579 | 135.17428 | 245 ft | 19 kts | 41° |
| 2026-04-27 04:10 | 48.51859 | 135.17800 | 248 ft | 89 kts | 42° |
| 2026-04-27 04:10 | 48.52485 | 135.18652 | 260 ft | 150 kts | 41° |
| 2026-04-27 04:11 | 48.53273 | 135.19649 | 1026 ft | 144 kts | 38° |
| 2026-04-27 04:11 | 48.54031 | 135.20653 | 1761 ft | 152 kts | 44° |
| 2026-04-27 04:11 | 48.54908 | 135.21735 | 2041 ft | 178 kts | 27° |
| 2026-04-27 04:11 | 48.56271 | 135.21845 | 2139 ft | 220 kts | 344° |
| 2026-04-27 04:12 | 48.57532 | 135.20347 | 2651 ft | 244 kts | 306° |
| 2026-04-27 04:12 | 48.57993 | 135.17850 | 3444 ft | 256 kts | 274° |
| 2026-04-27 04:12 | 48.58020 | 135.15156 | 4250 ft | 259 kts | 276° |
| 2026-04-27 04:12 | 48.58320 | 135.12443 | 5070 ft | 261 kts | 286° |
| 2026-04-27 04:13 | 48.58892 | 135.09839 | 5872 ft | 263 kts | 293° |
| 2026-04-27 04:13 | 48.59577 | 135.07460 | 6590 ft | 267 kts | 296° |
| 2026-04-27 04:13 | 48.60415 | 135.04929 | 7361 ft | 270 kts | 298° |
| 2026-04-27 04:13 | 48.61299 | 135.02451 | 8114 ft | 273 kts | 299° |
| 2026-04-27 04:14 | 48.62243 | 134.99899 | 8897 ft | 276 kts | 299° |
| 2026-04-27 04:14 | 48.63186 | 134.97392 | 9683 ft | 280 kts | 299° |
| 2026-04-27 04:14 | 48.64161 | 134.94818 | 10348 ft | 288 kts | 299° |
| 2026-04-27 04:14 | 48.65187 | 134.92120 | 10687 ft | 305 kts | 299° |
| 2026-04-27 04:15 | 48.66278 | 134.89258 | 11052 ft | 321 kts | 299° |
| 2026-04-27 04:15 | 48.67412 | 134.86299 | 11651 ft | 327 kts | 300° |
| 2026-04-27 04:15 | 48.68541 | 134.83368 | 12334 ft | 331 kts | 300° |
| 2026-04-27 04:15 | 48.69694 | 134.80372 | 12441 ft | 335 kts | 300° |
| 2026-04-27 04:16 | 48.70870 | 134.77300 | 13708 ft | 338 kts | 300° |
| 2026-04-27 04:16 | 48.72047 | 134.74222 | 14346 ft | 340 kts | 299° |
| 2026-04-27 04:16 | 48.73245 | 134.71093 | 15029 ft | 342 kts | 299° |
| 2026-04-27 04:16 | 48.74433 | 134.67975 | 15686 ft | 344 kts | 298° |
| 2026-04-27 04:17 | 48.75633 | 134.64808 | 16306 ft | 348 kts | 298° |
| 2026-04-27 04:17 | 48.76843 | 134.61603 | 16939 ft | 350 kts | 298° |
| 2026-04-27 04:17 | 48.78054 | 134.58393 | 17595 ft | 353 kts | 298° |
| 2026-04-27 04:17 | 48.79281 | 134.55142 | 18222 ft | 356 kts | 298° |
| 2026-04-27 04:18 | 48.80517 | 134.51864 | 18766 ft | 359 kts | 298° |
| 2026-04-27 04:18 | 48.81763 | 134.48559 | 19321 ft | 362 kts | 297° |
| 2026-04-27 04:18 | 48.83014 | 134.45237 | 19868 ft | 364 kts | 297° |
| 2026-04-27 04:18 | 48.84272 | 134.41892 | 20419 ft | 367 kts | 297° |
| 2026-04-27 04:19 | 48.85541 | 134.38512 | 20974 ft | 369 kts | 297° |
| 2026-04-27 04:19 | 48.86815 | 134.35117 | 21527 ft | 372 kts | 297° |
| 2026-04-27 04:19 | 48.88100 | 134.31683 | 22078 ft | 374 kts | 297° |
| 2026-04-27 04:19 | 48.89394 | 134.28223 | 22629 ft | 377 kts | 297° |
| 2026-04-27 04:20 | 48.90688 | 134.24761 | 23167 ft | 380 kts | 297° |
| 2026-04-27 04:20 | 48.92018 | 134.21244 | 23685 ft | 383 kts | 297° |
| 2026-04-27 04:20 | 48.93384 | 134.17741 | 24120 ft | 386 kts | 298° |
| 2026-04-27 04:20 | 48.94757 | 134.14280 | 24516 ft | 389 kts | 298° |
| 2026-04-27 04:21 | 48.96168 | 134.10742 | 24945 ft | 392 kts | 298° |
| 2026-04-27 04:21 | 48.97587 | 134.07175 | 25352 ft | 395 kts | 298° |
| 2026-04-27 04:21 | 48.99014 | 134.03571 | 25778 ft | 398 kts | 298° |
| 2026-04-27 04:21 | 49.00442 | 133.99946 | 26174 ft | 402 kts | 298° |
| 2026-04-27 04:22 | 49.01886 | 133.96263 | 26601 ft | 405 kts | 298° |
| 2026-04-27 04:22 | 49.03328 | 133.92577 | 27014 ft | 408 kts | 298° |
| 2026-04-27 04:22 | 49.04790 | 133.88834 | 27458 ft | 412 kts | 298° |
| 2026-04-27 04:22 | 49.06261 | 133.85056 | 27894 ft | 415 kts | 298° |
| 2026-04-27 04:23 | 49.07738 | 133.81256 | 28329 ft | 419 kts | 298° |
| 2026-04-27 04:23 | 49.09232 | 133.77412 | 28750 ft | 423 kts | 298° |
| 2026-04-27 04:23 | 49.10735 | 133.73540 | 29178 ft | 426 kts | 298° |
| 2026-04-27 04:23 | 49.12247 | 133.69637 | 29586 ft | 430 kts | 298° |
| 2026-04-27 04:24 | 49.13774 | 133.65693 | 29987 ft | 434 kts | 298° |
| 2026-04-27 04:24 | 49.15318 | 133.61694 | 30331 ft | 437 kts | 298° |
| 2026-04-27 04:24 | 49.16866 | 133.57683 | 30668 ft | 440 kts | 298° |
| 2026-04-27 04:24 | 49.18423 | 133.53638 | 31001 ft | 443 kts | 298° |
| 2026-04-27 04:25 | 49.19971 | 133.49614 | 31319 ft | 446 kts | 298° |
| 2026-04-27 04:25 | 49.21697 | 133.45638 | 31637 ft | 451 kts | 305° |
| 2026-04-27 04:25 | 49.23772 | 133.42000 | 31969 ft | 456 kts | 311° |
| 2026-04-27 04:25 | 49.25977 | 133.38510 | 32279 ft | 459 kts | 312° |
| 2026-04-27 04:26 | 49.28243 | 133.35042 | 32569 ft | 462 kts | 313° |
| 2026-04-27 04:26 | 49.30543 | 133.31579 | 32883 ft | 465 kts | 314° |
| 2026-04-27 04:26 | 49.32869 | 133.28103 | 33182 ft | 468 kts | 314° |
| 2026-04-27 04:26 | 49.35209 | 133.24607 | 33461 ft | 471 kts | 314° |
| 2026-04-27 04:27 | 49.37552 | 133.21085 | 33732 ft | 473 kts | 313° |
| 2026-04-27 04:27 | 49.39884 | 133.17545 | 33998 ft | 476 kts | 313° |
| 2026-04-27 04:27 | 49.42253 | 133.13924 | 34222 ft | 478 kts | 313° |
| 2026-04-27 04:27 | 49.44605 | 133.10314 | 34444 ft | 481 kts | 313° |
| 2026-04-27 04:28 | 49.46976 | 133.06665 | 34672 ft | 483 kts | 313° |
| 2026-04-27 04:28 | 49.49350 | 133.03011 | 34990 ft | 482 kts | 313° |
| 2026-04-27 04:28 | 49.51724 | 132.99354 | 35306 ft | 482 kts | 313° |
| 2026-04-27 04:28 | 49.54094 | 132.95702 | 35598 ft | 482 kts | 313° |
| 2026-04-27 04:29 | 49.56463 | 132.92045 | 35896 ft | 482 kts | 313° |
| 2026-04-27 04:29 | 49.58837 | 132.88379 | 36190 ft | 483 kts | 313° |
| 2026-04-27 04:29 | 49.61208 | 132.84707 | 36488 ft | 483 kts | 313° |
| 2026-04-27 04:29 | 49.63575 | 132.81032 | 36797 ft | 483 kts | 313° |
| 2026-04-27 04:30 | 49.65935 | 132.77361 | 37091 ft | 483 kts | 313° |
| 2026-04-27 04:30 | 49.68297 | 132.73683 | 37386 ft | 483 kts | 313° |
| 2026-04-27 04:30 | 49.70665 | 132.69992 | 37686 ft | 483 kts | 313° |
| 2026-04-27 04:30 | 49.73030 | 132.66301 | 37981 ft | 483 kts | 313° |
| 2026-04-27 04:31 | 49.75389 | 132.62614 | 38275 ft | 483 kts | 313° |
| 2026-04-27 04:31 | 49.77747 | 132.58923 | 38547 ft | 483 kts | 313° |
| 2026-04-27 04:31 | 49.80111 | 132.55218 | 38784 ft | 483 kts | 313° |
| 2026-04-27 04:31 | 49.82466 | 132.51522 | 38987 ft | 483 kts | 313° |
| 2026-04-27 04:32 | 49.84829 | 132.47807 | 39198 ft | 483 kts | 313° |
| 2026-04-27 04:32 | 49.87156 | 132.44141 | 39388 ft | 483 kts | 313° |
| 2026-04-27 04:32 | 49.89542 | 132.40376 | 39590 ft | 483 kts | 313° |
| 2026-04-27 04:32 | 49.91891 | 132.36666 | 39779 ft | 483 kts | 313° |
| 2026-04-27 04:33 | 49.94211 | 132.32995 | 39955 ft | 483 kts | 313° |
| 2026-04-27 04:33 | 49.96560 | 132.29274 | 40014 ft | 486 kts | 313° |
| 2026-04-27 04:33 | 50.01327 | 132.21704 | 40012 ft | 491 kts | 313° |
| 2026-04-27 04:34 | 50.06101 | 132.14106 | 40016 ft | 490 kts | 313° |
| 2026-04-27 04:34 | 50.10838 | 132.06462 | 40016 ft | 490 kts | 312° |
| 2026-04-27 04:35 | 50.15562 | 131.98796 | 40019 ft | 490 kts | 312° |
| 2026-04-27 04:35 | 50.20279 | 131.91136 | 40014 ft | 490 kts | 312° |
| 2026-04-27 04:36 | 50.24974 | 131.83502 | 40018 ft | 490 kts | 312° |
| 2026-04-27 04:36 | 50.29677 | 131.75812 | 40018 ft | 490 kts | 312° |
| 2026-04-27 04:37 | 50.34385 | 131.68093 | 40015 ft | 490 kts | 312° |
| 2026-04-27 04:37 | 50.39089 | 131.60364 | 40016 ft | 490 kts | 312° |
| 2026-04-27 04:38 | 50.43791 | 131.52617 | 40022 ft | 490 kts | 312° |
| 2026-04-27 04:38 | 50.48482 | 131.44861 | 40022 ft | 490 kts | 312° |
| 2026-04-27 04:39 | 50.53163 | 131.37097 | 40019 ft | 490 kts | 312° |
| 2026-04-27 04:39 | 50.57858 | 131.29285 | 40021 ft | 490 kts | 312° |
| 2026-04-27 04:40 | 50.62528 | 131.21489 | 40018 ft | 490 kts | 312° |
| 2026-04-27 04:40 | 50.67208 | 131.13653 | 40016 ft | 490 kts | 312° |
| 2026-04-27 04:41 | 50.71846 | 131.05872 | 40017 ft | 490 kts | 312° |
| 2026-04-27 04:41 | 50.76497 | 130.98023 | 40020 ft | 489 kts | 311° |
| 2026-04-27 04:42 | 50.81120 | 130.90146 | 40022 ft | 489 kts | 311° |
| 2026-04-27 04:42 | 50.85766 | 130.82268 | 40024 ft | 486 kts | 314° |
| 2026-04-27 04:43 | 50.90376 | 130.74476 | 40028 ft | 483 kts | 314° |
| 2026-04-27 04:43 | 50.94948 | 130.66694 | 40030 ft | 483 kts | 314° |
| 2026-04-27 04:44 | 50.99487 | 130.58919 | 40029 ft | 483 kts | 314° |
| 2026-04-27 04:44 | 51.04066 | 130.51052 | 40027 ft | 483 kts | 314° |
| 2026-04-27 04:45 | 51.08596 | 130.43245 | 40029 ft | 482 kts | 314° |
| 2026-04-27 04:45 | 51.13142 | 130.35384 | 40035 ft | 482 kts | 314° |
| 2026-04-27 04:46 | 51.17689 | 130.27498 | 40033 ft | 482 kts | 313° |
| 2026-04-27 04:46 | 51.22214 | 130.19623 | 40034 ft | 482 kts | 314° |
| 2026-04-27 04:47 | 51.26733 | 130.11743 | 40037 ft | 482 kts | 313° |
| 2026-04-27 04:47 | 51.31251 | 130.03835 | 40039 ft | 481 kts | 313° |
| 2026-04-27 04:48 | 51.35757 | 129.95905 | 40043 ft | 482 kts | 313° |
| 2026-04-27 04:48 | 51.40184 | 129.87872 | 40041 ft | 482 kts | 312° |
| 2026-04-27 04:49 | 51.44588 | 129.79778 | 40043 ft | 481 kts | 312° |
| 2026-04-27 04:49 | 51.48976 | 129.71762 | 40045 ft | 481 kts | 313° |
| 2026-04-27 04:50 | 51.53406 | 129.63704 | 40054 ft | 481 kts | 313° |
| 2026-04-27 04:50 | 51.57830 | 129.55639 | 40061 ft | 481 kts | 313° |
| 2026-04-27 04:51 | 51.62234 | 129.47539 | 40042 ft | 481 kts | 312° |
| 2026-04-27 04:51 | 51.66617 | 129.39392 | 40047 ft | 481 kts | 312° |
| 2026-04-27 04:52 | 51.70994 | 129.31229 | 40053 ft | 481 kts | 312° |
| 2026-04-27 04:52 | 51.75371 | 129.23073 | 40055 ft | 481 kts | 312° |
| 2026-04-27 04:53 | 51.79753 | 129.14899 | 40052 ft | 481 kts | 312° |
| 2026-04-27 04:53 | 51.84109 | 129.06752 | 40050 ft | 481 kts | 312° |
| 2026-04-27 04:54 | 51.88480 | 128.98544 | 40062 ft | 481 kts | 312° |
| 2026-04-27 04:54 | 51.92844 | 128.90321 | 40060 ft | 481 kts | 312° |
| 2026-04-27 04:55 | 51.96461 | 128.83486 | 40060 ft | 481 kts | 312° |
| 2026-04-27 04:55 | 52.00811 | 128.75241 | 40062 ft | 481 kts | 312° |
| 2026-04-27 04:56 | 52.05897 | 128.65568 | 40070 ft | 481 kts | 311° |
| 2026-04-27 04:56 | 52.10237 | 128.57286 | 40065 ft | 481 kts | 311° |
| 2026-04-27 04:57 | 52.13847 | 128.50375 | 40066 ft | 481 kts | 311° |
| 2026-04-27 04:57 | 52.18179 | 128.42059 | 40064 ft | 481 kts | 311° |
| 2026-04-27 04:58 | 52.22502 | 128.33730 | 40061 ft | 481 kts | 311° |
| 2026-04-27 04:58 | 52.26822 | 128.25379 | 40066 ft | 481 kts | 311° |
| 2026-04-27 04:59 | 52.31143 | 128.16999 | 40064 ft | 481 kts | 311° |
| 2026-04-27 04:59 | 52.35426 | 128.08665 | 40070 ft | 481 kts | 311° |
| 2026-04-27 05:00 | 52.39722 | 128.00278 | 40074 ft | 481 kts | 311° |
| 2026-04-27 05:00 | 52.44011 | 127.91878 | 40082 ft | 481 kts | 311° |
| 2026-04-27 05:01 | 52.48303 | 127.83442 | 40078 ft | 481 kts | 311° |
| 2026-04-27 05:01 | 52.52583 | 127.75002 | 40080 ft | 481 kts | 311° |
| 2026-04-27 05:02 | 52.56858 | 127.66545 | 40082 ft | 481 kts | 311° |
| 2026-04-27 05:03 | 52.63259 | 127.53826 | 40086 ft | 481 kts | 311° |
| 2026-04-27 05:03 | 52.67516 | 127.45334 | 40088 ft | 481 kts | 311° |
| 2026-04-27 05:04 | 52.71768 | 127.36806 | 40089 ft | 481 kts | 310° |
| 2026-04-27 05:04 | 52.75975 | 127.28252 | 40090 ft | 481 kts | 310° |
| 2026-04-27 05:05 | 52.80026 | 127.19982 | 40093 ft | 481 kts | 310° |
| 2026-04-27 05:05 | 52.84205 | 127.11442 | 40090 ft | 481 kts | 310° |
| 2026-04-27 05:06 | 52.88428 | 127.02806 | 40096 ft | 481 kts | 310° |
| 2026-04-27 05:06 | 52.92604 | 126.94227 | 40098 ft | 481 kts | 310° |
| 2026-04-27 05:07 | 52.96812 | 126.85552 | 40094 ft | 480 kts | 310° |
| 2026-04-27 05:07 | 53.00963 | 126.76969 | 40098 ft | 480 kts | 310° |
| 2026-04-27 05:08 | 53.05141 | 126.68302 | 40104 ft | 480 kts | 310° |
| 2026-04-27 05:08 | 53.09346 | 126.59548 | 40101 ft | 480 kts | 310° |
| 2026-04-27 05:09 | 53.13509 | 126.50850 | 40103 ft | 480 kts | 310° |
| 2026-04-27 05:09 | 53.17643 | 126.42185 | 40105 ft | 480 kts | 310° |
| 2026-04-27 05:10 | 53.21772 | 126.33498 | 40106 ft | 480 kts | 310° |
| 2026-04-27 05:10 | 53.25888 | 126.24811 | 40110 ft | 480 kts | 310° |
| 2026-04-27 05:11 | 53.30051 | 126.15990 | 40108 ft | 479 kts | 310° |
| 2026-04-27 05:11 | 53.34169 | 126.07238 | 40104 ft | 479 kts | 310° |
| 2026-04-27 05:12 | 53.38288 | 125.98452 | 40115 ft | 479 kts | 309° |
| 2026-04-27 05:12 | 53.42391 | 125.89669 | 40118 ft | 479 kts | 309° |
| 2026-04-27 05:13 | 53.46396 | 125.80845 | 40120 ft | 471 kts | 305° |
| 2026-04-27 05:13 | 53.49398 | 125.71353 | 40117 ft | 466 kts | 298° |
| 2026-04-27 05:14 | 53.52161 | 125.61385 | 40117 ft | 466 kts | 297° |
| 2026-04-27 05:14 | 53.54851 | 125.51435 | 40116 ft | 467 kts | 296° |
| 2026-04-27 05:15 | 53.57527 | 125.41519 | 40121 ft | 468 kts | 296° |
| 2026-04-27 05:15 | 53.60232 | 125.31493 | 40123 ft | 468 kts | 296° |
| 2026-04-27 05:16 | 53.62911 | 125.21533 | 40118 ft | 468 kts | 296° |
| 2026-04-27 05:16 | 53.65579 | 125.11571 | 40123 ft | 468 kts | 296° |
| 2026-04-27 05:17 | 53.68244 | 125.01577 | 40122 ft | 468 kts | 296° |
| 2026-04-27 05:17 | 53.70903 | 124.91552 | 40130 ft | 468 kts | 296° |
| 2026-04-27 05:18 | 53.73552 | 124.81528 | 40131 ft | 468 kts | 296° |
| 2026-04-27 05:18 | 53.76185 | 124.71518 | 40134 ft | 468 kts | 296° |
| 2026-04-27 05:19 | 53.78831 | 124.61417 | 40137 ft | 468 kts | 296° |
| 2026-04-27 05:19 | 53.81458 | 124.51346 | 40141 ft | 468 kts | 296° |
| 2026-04-27 05:20 | 53.84076 | 124.41263 | 40147 ft | 468 kts | 296° |
| 2026-04-27 05:20 | 53.86687 | 124.31155 | 40148 ft | 468 kts | 296° |
| 2026-04-27 05:21 | 53.89290 | 124.21041 | 40150 ft | 468 kts | 296° |
| 2026-04-27 05:21 | 53.91853 | 124.11011 | 40151 ft | 468 kts | 296° |
| 2026-04-27 05:22 | 53.94436 | 124.00861 | 40148 ft | 468 kts | 296° |
| 2026-04-27 05:22 | 53.97017 | 123.90674 | 40152 ft | 468 kts | 296° |
| 2026-04-27 05:23 | 53.99552 | 123.80627 | 40151 ft | 468 kts | 295° |
| 2026-04-27 05:23 | 54.02137 | 123.70344 | 40155 ft | 468 kts | 295° |
| 2026-04-27 05:24 | 54.04688 | 123.60149 | 40152 ft | 468 kts | 295° |
| 2026-04-27 05:24 | 54.07213 | 123.50002 | 40153 ft | 468 kts | 295° |
| 2026-04-27 05:25 | 54.09740 | 123.39804 | 40154 ft | 468 kts | 295° |
| 2026-04-27 05:25 | 54.12237 | 123.29675 | 40154 ft | 468 kts | 295° |
| 2026-04-27 05:26 | 54.14778 | 123.19320 | 40159 ft | 468 kts | 295° |
| 2026-04-27 05:26 | 54.17265 | 123.09144 | 40161 ft | 468 kts | 295° |
| 2026-04-27 05:27 | 54.19756 | 122.98900 | 40163 ft | 468 kts | 295° |
| 2026-04-27 05:27 | 54.22241 | 122.88633 | 40163 ft | 468 kts | 295° |
| 2026-04-27 05:28 | 54.24729 | 122.78306 | 40170 ft | 468 kts | 295° |
| 2026-04-27 05:28 | 54.27205 | 122.67975 | 40170 ft | 468 kts | 295° |
| 2026-04-27 05:29 | 54.29664 | 122.57675 | 40173 ft | 468 kts | 295° |
| 2026-04-27 05:29 | 54.32089 | 122.47466 | 40176 ft | 468 kts | 295° |
| 2026-04-27 05:30 | 54.34561 | 122.37004 | 40178 ft | 468 kts | 295° |
| 2026-04-27 05:30 | 54.36999 | 122.26639 | 40181 ft | 468 kts | 294° |
| 2026-04-27 05:31 | 54.39423 | 122.16279 | 40183 ft | 468 kts | 294° |
| 2026-04-27 05:31 | 54.41818 | 122.05986 | 40186 ft | 468 kts | 294° |
| 2026-04-27 05:32 | 54.43909 | 121.95321 | 40189 ft | 470 kts | 290° |
| 2026-04-27 05:32 | 54.45780 | 121.84613 | 40191 ft | 470 kts | 289° |
| 2026-04-27 05:33 | 54.47696 | 121.73892 | 40192 ft | 469 kts | 290° |
| 2026-04-27 05:33 | 54.49639 | 121.63271 | 40200 ft | 469 kts | 290° |
| 2026-04-27 05:34 | 54.51600 | 121.52581 | 40202 ft | 470 kts | 290° |
| 2026-04-27 05:34 | 54.53583 | 121.41702 | 40204 ft | 470 kts | 290° |
| 2026-04-27 05:35 | 54.55529 | 121.30950 | 40210 ft | 470 kts | 290° |
| 2026-04-27 05:35 | 54.57465 | 121.20190 | 40210 ft | 470 kts | 290° |
| 2026-04-27 05:36 | 54.59389 | 121.09424 | 40213 ft | 470 kts | 290° |
| 2026-04-27 05:36 | 54.61285 | 120.98762 | 40215 ft | 470 kts | 290° |
| 2026-04-27 05:37 | 54.63207 | 120.87883 | 40213 ft | 470 kts | 290° |
| 2026-04-27 05:37 | 54.65092 | 120.77143 | 40229 ft | 470 kts | 290° |
| 2026-04-27 05:38 | 54.66656 | 120.68188 | 40214 ft | 470 kts | 289° |
| 2026-04-27 05:38 | 54.68858 | 120.55496 | 40216 ft | 470 kts | 289° |
| 2026-04-27 05:39 | 54.70713 | 120.44739 | 40228 ft | 470 kts | 289° |
| 2026-04-27 05:39 | 54.72583 | 120.33835 | 40232 ft | 470 kts | 289° |
| 2026-04-27 05:40 | 54.74416 | 120.23069 | 40236 ft | 470 kts | 289° |
| 2026-04-27 05:40 | 54.75941 | 120.14072 | 40240 ft | 471 kts | 289° |
| 2026-04-27 05:41 | 54.78071 | 120.01421 | 40247 ft | 471 kts | 289° |
| 2026-04-27 05:41 | 54.79609 | 119.92222 | 40250 ft | 470 kts | 289° |
| 2026-04-27 05:42 | 54.81419 | 119.81343 | 40251 ft | 470 kts | 289° |
| 2026-04-27 05:42 | 54.83198 | 119.70584 | 40252 ft | 470 kts | 289° |
| 2026-04-27 05:43 | 54.85310 | 119.57724 | 40256 ft | 470 kts | 289° |
| 2026-04-27 05:43 | 54.86776 | 119.48741 | 40257 ft | 470 kts | 289° |
| 2026-04-27 05:44 | 54.88569 | 119.37682 | 40259 ft | 470 kts | 289° |
| 2026-04-27 05:44 | 54.90330 | 119.26757 | 40259 ft | 470 kts | 289° |
| 2026-04-27 05:45 | 54.92093 | 119.15817 | 40263 ft | 471 kts | 289° |
| 2026-04-27 05:45 | 54.93844 | 119.04860 | 40260 ft | 471 kts | 289° |
| 2026-04-27 05:46 | 54.95586 | 118.93877 | 40265 ft | 471 kts | 289° |
| 2026-04-27 05:46 | 54.97292 | 118.83053 | 40264 ft | 470 kts | 289° |
| 2026-04-27 05:47 | 54.99029 | 118.71978 | 40265 ft | 470 kts | 289° |
| 2026-04-27 05:47 | 55.00732 | 118.61039 | 40264 ft | 471 kts | 289° |
| 2026-04-27 05:48 | 55.02446 | 118.49949 | 40269 ft | 471 kts | 288° |
| 2026-04-27 05:48 | 55.04140 | 118.38935 | 40268 ft | 471 kts | 288° |
| 2026-04-27 05:49 | 55.05825 | 118.27893 | 40269 ft | 471 kts | 288° |
| 2026-04-27 05:49 | 55.07492 | 118.16896 | 40271 ft | 471 kts | 288° |
| 2026-04-27 05:50 | 55.09151 | 118.05878 | 40270 ft | 471 kts | 288° |
| 2026-04-27 05:50 | 55.10800 | 117.94785 | 40271 ft | 471 kts | 288° |
| 2026-04-27 05:51 | 55.12386 | 117.83785 | 40269 ft | 471 kts | 288° |
| 2026-04-27 05:51 | 55.13980 | 117.72631 | 40270 ft | 471 kts | 288° |
| 2026-04-27 05:52 | 55.15562 | 117.61524 | 40285 ft | 471 kts | 288° |
| 2026-04-27 05:52 | 55.17149 | 117.50364 | 40282 ft | 471 kts | 288° |
| 2026-04-27 05:53 | 55.18745 | 117.39368 | 40273 ft | 471 kts | 288° |
| 2026-04-27 05:53 | 55.20370 | 117.28147 | 40274 ft | 471 kts | 288° |
| 2026-04-27 05:54 | 55.21962 | 117.17025 | 40271 ft | 471 kts | 288° |
| 2026-04-27 05:54 | 55.23535 | 117.05936 | 40275 ft | 471 kts | 288° |
| 2026-04-27 05:55 | 55.25101 | 116.94847 | 40267 ft | 471 kts | 287° |
| 2026-04-27 05:55 | 55.26669 | 116.83622 | 40271 ft | 472 kts | 287° |
| 2026-04-27 05:56 | 55.28201 | 116.72564 | 40269 ft | 472 kts | 287° |
| 2026-04-27 05:56 | 55.29757 | 116.61276 | 40278 ft | 472 kts | 287° |
| 2026-04-27 05:57 | 55.31275 | 116.50195 | 40277 ft | 472 kts | 287° |
| 2026-04-27 05:57 | 55.32812 | 116.38874 | 40275 ft | 472 kts | 287° |
| 2026-04-27 05:58 | 55.34327 | 116.27663 | 40277 ft | 471 kts | 287° |
| 2026-04-27 05:58 | 55.35817 | 116.16436 | 40278 ft | 472 kts | 287° |
| 2026-04-27 05:59 | 55.37286 | 116.05182 | 40279 ft | 472 kts | 287° |
| 2026-04-27 05:59 | 55.38749 | 115.93939 | 40278 ft | 472 kts | 287° |
| 2026-04-27 06:00 | 55.40923 | 115.77114 | 40280 ft | 472 kts | 287° |
| 2026-04-27 06:00 | 55.42346 | 115.65986 | 40277 ft | 472 kts | 287° |
| 2026-04-27 06:01 | 55.43792 | 115.54590 | 40277 ft | 472 kts | 286° |
| 2026-04-27 06:01 | 55.45209 | 115.43326 | 40283 ft | 472 kts | 286° |
| 2026-04-27 06:02 | 55.46627 | 115.31971 | 40286 ft | 472 kts | 286° |
| 2026-04-27 06:02 | 55.48024 | 115.20687 | 40294 ft | 472 kts | 286° |
| 2026-04-27 06:03 | 55.49411 | 115.09397 | 40300 ft | 472 kts | 286° |
| 2026-04-27 06:03 | 55.50771 | 114.98236 | 40299 ft | 472 kts | 286° |
| 2026-04-27 06:04 | 55.52163 | 114.86728 | 40303 ft | 472 kts | 286° |
| 2026-04-27 06:04 | 55.53506 | 114.75521 | 40297 ft | 472 kts | 286° |
| 2026-04-27 06:05 | 55.54856 | 114.64156 | 40300 ft | 472 kts | 286° |
| 2026-04-27 06:05 | 55.56194 | 114.52804 | 40307 ft | 472 kts | 286° |
| 2026-04-27 06:06 | 55.57523 | 114.41432 | 40308 ft | 472 kts | 286° |
| 2026-04-27 06:06 | 55.58840 | 114.30061 | 40307 ft | 472 kts | 286° |
| 2026-04-27 06:07 | 55.60132 | 114.18804 | 40308 ft | 471 kts | 285° |
| 2026-04-27 06:07 | 55.61429 | 114.07370 | 40302 ft | 471 kts | 285° |
| 2026-04-27 06:08 | 55.62700 | 113.96110 | 40301 ft | 471 kts | 285° |
| 2026-04-27 06:08 | 55.63989 | 113.84605 | 40297 ft | 471 kts | 285° |
| 2026-04-27 06:09 | 55.65251 | 113.73235 | 40296 ft | 471 kts | 285° |
| 2026-04-27 06:09 | 55.66502 | 113.61847 | 40307 ft | 471 kts | 285° |
| 2026-04-27 06:10 | 55.67738 | 113.50481 | 40298 ft | 471 kts | 285° |
| 2026-04-27 06:10 | 55.68960 | 113.39140 | 40300 ft | 470 kts | 284° |
| 2026-04-27 06:11 | 55.70138 | 113.27720 | 40304 ft | 470 kts | 284° |
| 2026-04-27 06:11 | 55.71295 | 113.16327 | 40307 ft | 471 kts | 284° |
| 2026-04-27 06:12 | 55.72467 | 113.04930 | 40310 ft | 470 kts | 284° |
| 2026-04-27 06:12 | 55.73651 | 112.93509 | 40312 ft | 470 kts | 284° |
| 2026-04-27 06:13 | 55.74826 | 112.82103 | 40318 ft | 470 kts | 284° |
| 2026-04-27 06:13 | 55.75984 | 112.70765 | 40315 ft | 469 kts | 284° |
| 2026-04-27 06:14 | 55.77144 | 112.59307 | 40316 ft | 469 kts | 284° |
| 2026-04-27 06:14 | 55.78287 | 112.47863 | 40307 ft | 469 kts | 284° |
| 2026-04-27 06:15 | 55.79397 | 112.36630 | 40311 ft | 470 kts | 283° |
| 2026-04-27 06:15 | 55.80520 | 112.25146 | 40309 ft | 469 kts | 283° |
| 2026-04-27 06:16 | 55.81639 | 112.13615 | 40296 ft | 470 kts | 283° |
| 2026-04-27 06:16 | 55.82742 | 112.02143 | 40299 ft | 470 kts | 283° |
| 2026-04-27 06:17 | 55.83825 | 111.90738 | 40302 ft | 470 kts | 283° |
| 2026-04-27 06:17 | 55.84892 | 111.79388 | 40300 ft | 470 kts | 283° |
| 2026-04-27 06:18 | 55.85972 | 111.67788 | 40306 ft | 471 kts | 283° |
| 2026-04-27 06:18 | 55.87028 | 111.56321 | 40311 ft | 470 kts | 283° |
| 2026-04-27 06:19 | 55.88079 | 111.44771 | 40322 ft | 470 kts | 283° |
| 2026-04-27 06:19 | 55.89112 | 111.33361 | 40317 ft | 470 kts | 283° |
| 2026-04-27 06:20 | 55.90133 | 111.21866 | 40314 ft | 471 kts | 283° |
| 2026-04-27 06:20 | 55.91139 | 111.10318 | 40319 ft | 471 kts | 282° |
| 2026-04-27 06:21 | 55.92137 | 110.98766 | 40331 ft | 471 kts | 282° |
| 2026-04-27 06:21 | 55.93125 | 110.87222 | 40340 ft | 471 kts | 282° |
| 2026-04-27 06:22 | 55.94104 | 110.75680 | 40348 ft | 471 kts | 282° |
| 2026-04-27 06:22 | 55.95083 | 110.64110 | 40356 ft | 471 kts | 282° |
| 2026-04-27 06:23 | 55.96043 | 110.52546 | 40363 ft | 471 kts | 282° |
| 2026-04-27 06:23 | 55.96988 | 110.41006 | 40367 ft | 471 kts | 282° |
| 2026-04-27 06:24 | 55.97918 | 110.29535 | 40369 ft | 471 kts | 282° |
| 2026-04-27 06:24 | 55.98857 | 110.17826 | 40368 ft | 471 kts | 282° |
| 2026-04-27 06:25 | 55.99766 | 110.06351 | 40369 ft | 471 kts | 282° |
| 2026-04-27 06:25 | 56.00674 | 109.94729 | 40374 ft | 471 kts | 281° |
| 2026-04-27 06:26 | 56.01564 | 109.83218 | 40370 ft | 471 kts | 281° |
| 2026-04-27 06:26 | 56.02453 | 109.71631 | 40364 ft | 471 kts | 281° |
| 2026-04-27 06:27 | 56.03187 | 109.61962 | 40363 ft | 471 kts | 281° |
| 2026-04-27 06:27 | 56.04206 | 109.48364 | 40350 ft | 470 kts | 281° |
| 2026-04-27 06:28 | 56.05062 | 109.36763 | 40345 ft | 470 kts | 281° |
| 2026-04-27 06:28 | 56.05766 | 109.27108 | 40334 ft | 471 kts | 281° |
| 2026-04-27 06:29 | 56.06727 | 109.13731 | 40321 ft | 471 kts | 281° |
| 2026-04-27 06:29 | 56.07548 | 109.02145 | 40317 ft | 470 kts | 281° |
| 2026-04-27 06:30 | 56.08238 | 108.92269 | 40315 ft | 470 kts | 281° |
| 2026-04-27 06:30 | 56.09028 | 108.80859 | 40304 ft | 470 kts | 281° |
| 2026-04-27 06:31 | 56.09830 | 108.69194 | 40298 ft | 469 kts | 280° |
| 2026-04-27 06:31 | 56.10601 | 108.57639 | 40291 ft | 469 kts | 280° |
| 2026-04-27 06:32 | 56.11373 | 108.45946 | 40290 ft | 469 kts | 280° |
| 2026-04-27 06:32 | 56.12132 | 108.34286 | 40282 ft | 469 kts | 280° |
| 2026-04-27 06:33 | 56.12879 | 108.22668 | 40279 ft | 469 kts | 280° |
| 2026-04-27 06:33 | 56.13610 | 108.11148 | 40280 ft | 468 kts | 280° |
| 2026-04-27 06:34 | 56.14329 | 107.99634 | 40271 ft | 468 kts | 280° |
| 2026-04-27 06:34 | 56.15042 | 107.88031 | 40269 ft | 468 kts | 279° |
| 2026-04-27 06:35 | 56.15744 | 107.76433 | 40267 ft | 467 kts | 279° |
| 2026-04-27 06:35 | 56.16434 | 107.64826 | 40259 ft | 467 kts | 279° |
| 2026-04-27 06:36 | 56.17113 | 107.53233 | 40258 ft | 467 kts | 279° |
| 2026-04-27 06:36 | 56.17780 | 107.41656 | 40253 ft | 467 kts | 279° |
| 2026-04-27 06:37 | 56.18437 | 107.30065 | 40261 ft | 467 kts | 279° |
| 2026-04-27 06:37 | 56.19083 | 107.18463 | 40252 ft | 467 kts | 279° |
| 2026-04-27 06:38 | 56.19722 | 107.06881 | 40239 ft | 466 kts | 279° |
| 2026-04-27 06:38 | 56.20365 | 106.95367 | 40233 ft | 466 kts | 279° |
| 2026-04-27 06:39 | 56.20975 | 106.83782 | 40228 ft | 466 kts | 279° |
| 2026-04-27 06:39 | 56.21573 | 106.72171 | 40223 ft | 466 kts | 279° |
| 2026-04-27 06:40 | 56.22172 | 106.60561 | 40222 ft | 466 kts | 278° |
| 2026-04-27 06:40 | 56.22749 | 106.48974 | 40217 ft | 466 kts | 278° |
| 2026-04-27 06:41 | 56.23316 | 106.37347 | 40218 ft | 466 kts | 278° |
| 2026-04-27 06:41 | 56.23875 | 106.25747 | 40212 ft | 466 kts | 278° |
| 2026-04-27 06:42 | 56.24425 | 106.14105 | 40213 ft | 466 kts | 278° |
| 2026-04-27 06:42 | 56.24962 | 106.02515 | 40206 ft | 466 kts | 278° |
| 2026-04-27 06:43 | 56.25490 | 105.90888 | 40203 ft | 466 kts | 278° |
| 2026-04-27 06:43 | 56.26003 | 105.79321 | 40201 ft | 466 kts | 278° |
| 2026-04-27 06:44 | 56.26511 | 105.67644 | 40197 ft | 466 kts | 277° |
| 2026-04-27 06:44 | 56.27002 | 105.56066 | 40197 ft | 466 kts | 277° |
| 2026-04-27 06:45 | 56.27486 | 105.44437 | 40193 ft | 466 kts | 277° |
| 2026-04-27 06:45 | 56.27962 | 105.32812 | 40189 ft | 466 kts | 277° |
| 2026-04-27 06:46 | 56.28425 | 105.21167 | 40189 ft | 465 kts | 277° |
| 2026-04-27 06:46 | 56.28875 | 105.09551 | 40179 ft | 465 kts | 277° |
| 2026-04-27 06:47 | 56.29314 | 104.97937 | 40181 ft | 465 kts | 277° |
| 2026-04-27 06:47 | 56.29745 | 104.86306 | 40180 ft | 465 kts | 277° |
| 2026-04-27 06:48 | 56.30163 | 104.74694 | 40181 ft | 464 kts | 277° |
| 2026-04-27 06:48 | 56.30570 | 104.63085 | 40172 ft | 464 kts | 277° |
| 2026-04-27 06:49 | 56.30964 | 104.51547 | 40165 ft | 464 kts | 277° |
| 2026-04-27 06:49 | 56.31350 | 104.39933 | 40159 ft | 464 kts | 276° |
| 2026-04-27 06:50 | 56.31724 | 104.28349 | 40153 ft | 464 kts | 276° |
| 2026-04-27 06:50 | 56.32087 | 104.16766 | 40150 ft | 464 kts | 276° |
| 2026-04-27 06:51 | 56.32441 | 104.05163 | 40144 ft | 463 kts | 276° |
| 2026-04-27 06:51 | 56.32759 | 103.93582 | 40142 ft | 463 kts | 276° |
| 2026-04-27 06:52 | 56.33067 | 103.81992 | 40133 ft | 463 kts | 276° |
| 2026-04-27 06:52 | 56.33367 | 103.70408 | 40129 ft | 462 kts | 276° |
| 2026-04-27 06:53 | 56.33659 | 103.58832 | 40129 ft | 462 kts | 276° |
| 2026-04-27 06:53 | 56.33940 | 103.47267 | 40124 ft | 461 kts | 276° |
| 2026-04-27 06:54 | 56.34224 | 103.35712 | 40125 ft | 461 kts | 276° |
| 2026-04-27 06:54 | 56.34501 | 103.24170 | 40120 ft | 461 kts | 275° |
| 2026-04-27 06:55 | 56.34765 | 103.12713 | 40115 ft | 460 kts | 275° |
| 2026-04-27 06:55 | 56.35020 | 103.01188 | 40113 ft | 460 kts | 275° |
| 2026-04-27 06:56 | 56.35263 | 102.89667 | 40110 ft | 459 kts | 275° |
| 2026-04-27 06:56 | 56.35495 | 102.78162 | 40108 ft | 459 kts | 275° |
| 2026-04-27 06:57 | 56.35717 | 102.66683 | 40103 ft | 458 kts | 275° |
| 2026-04-27 06:57 | 56.35927 | 102.55200 | 40103 ft | 458 kts | 275° |
| 2026-04-27 06:58 | 56.36230 | 102.37978 | 40104 ft | 457 kts | 275° |
| 2026-04-27 06:59 | 56.36406 | 102.26511 | 40110 ft | 457 kts | 274° |
| 2026-04-27 06:59 | 56.36572 | 102.15116 | 40117 ft | 456 kts | 274° |
| 2026-04-27 07:00 | 56.36732 | 102.03695 | 40123 ft | 456 kts | 274° |
| 2026-04-27 07:00 | 56.36882 | 101.92238 | 40125 ft | 455 kts | 274° |
| 2026-04-27 07:01 | 56.37021 | 101.80862 | 40128 ft | 455 kts | 274° |
| 2026-04-27 07:01 | 56.37033 | 101.69422 | 40128 ft | 457 kts | 269° |
| 2026-04-27 07:02 | 56.36089 | 101.58026 | 40128 ft | 459 kts | 263° |
| 2026-04-27 07:02 | 56.34875 | 101.46732 | 40127 ft | 459 kts | 262° |
| 2026-04-27 07:03 | 56.33586 | 101.35458 | 40114 ft | 459 kts | 262° |
| 2026-04-27 07:03 | 56.32288 | 101.24185 | 40100 ft | 459 kts | 262° |
| 2026-04-27 07:04 | 56.30993 | 101.12941 | 40083 ft | 459 kts | 262° |
| 2026-04-27 07:04 | 56.29701 | 101.01768 | 40071 ft | 458 kts | 262° |
| 2026-04-27 07:05 | 56.28383 | 100.90468 | 40062 ft | 458 kts | 262° |
| 2026-04-27 07:05 | 56.27076 | 100.79315 | 40059 ft | 458 kts | 261° |
| 2026-04-27 07:06 | 56.25739 | 100.68111 | 40052 ft | 458 kts | 261° |
| 2026-04-27 07:06 | 56.24392 | 100.56912 | 40048 ft | 458 kts | 261° |
| 2026-04-27 07:07 | 56.23040 | 100.45734 | 40042 ft | 457 kts | 261° |
| 2026-04-27 07:07 | 56.21689 | 100.34588 | 40035 ft | 457 kts | 261° |
| 2026-04-27 07:08 | 56.20322 | 100.23425 | 40027 ft | 457 kts | 261° |
| 2026-04-27 07:08 | 56.18947 | 100.12293 | 40020 ft | 457 kts | 261° |
| 2026-04-27 07:09 | 56.17561 | 100.01147 | 40017 ft | 457 kts | 261° |
| 2026-04-27 07:09 | 56.16171 | 99.90045 | 40013 ft | 457 kts | 260° |
| 2026-04-27 07:10 | 56.14765 | 99.78921 | 40022 ft | 457 kts | 260° |
| 2026-04-27 07:10 | 56.13349 | 99.67813 | 40008 ft | 457 kts | 260° |
| 2026-04-27 07:11 | 56.11926 | 99.56725 | 40004 ft | 457 kts | 260° |
| 2026-04-27 07:11 | 56.10500 | 99.45697 | 40001 ft | 457 kts | 260° |
| 2026-04-27 07:12 | 56.09056 | 99.34608 | 39992 ft | 456 kts | 260° |
| 2026-04-27 07:12 | 56.08198 | 99.23432 | 39995 ft | 454 kts | 267° |
| 2026-04-27 07:13 | 56.07737 | 99.12164 | 39992 ft | 453 kts | 268° |
| 2026-04-27 07:13 | 56.07358 | 99.00891 | 39985 ft | 453 kts | 268° |
| 2026-04-27 07:14 | 56.06982 | 98.89631 | 39980 ft | 453 kts | 268° |
| 2026-04-27 07:14 | 56.06593 | 98.78377 | 39973 ft | 453 kts | 268° |
| 2026-04-27 07:15 | 56.06191 | 98.67133 | 39976 ft | 453 kts | 268° |
| 2026-04-27 07:15 | 56.05845 | 98.57811 | 39972 ft | 452 kts | 268° |
| 2026-04-27 07:16 | 56.05350 | 98.44749 | 39971 ft | 452 kts | 268° |
| 2026-04-27 07:16 | 56.04912 | 98.33454 | 39961 ft | 452 kts | 268° |
| 2026-04-27 07:17 | 56.04544 | 98.24164 | 39967 ft | 452 kts | 267° |
| 2026-04-27 07:17 | 56.04089 | 98.12942 | 39962 ft | 451 kts | 267° |
| 2026-04-27 07:18 | 56.03626 | 98.01735 | 39962 ft | 451 kts | 267° |
| 2026-04-27 07:18 | 56.03148 | 97.90568 | 39958 ft | 451 kts | 267° |
| 2026-04-27 07:19 | 56.02645 | 97.79456 | 39956 ft | 451 kts | 266° |
| 2026-04-27 07:19 | 56.02129 | 97.68289 | 39954 ft | 451 kts | 266° |
| 2026-04-27 07:20 | 56.01603 | 97.57060 | 39952 ft | 451 kts | 266° |
| 2026-04-27 07:20 | 56.01071 | 97.45891 | 39946 ft | 450 kts | 266° |
| 2026-04-27 07:21 | 56.00535 | 97.34851 | 39945 ft | 450 kts | 266° |
| 2026-04-27 07:21 | 55.99983 | 97.23709 | 39944 ft | 449 kts | 266° |
| 2026-04-27 07:22 | 55.99422 | 97.12575 | 39943 ft | 449 kts | 266° |
| 2026-04-27 07:22 | 55.98852 | 97.01468 | 39943 ft | 449 kts | 265° |
| 2026-04-27 07:23 | 55.98272 | 96.90376 | 39942 ft | 448 kts | 265° |
| 2026-04-27 07:23 | 55.97683 | 96.79283 | 39943 ft | 448 kts | 265° |
| 2026-04-27 07:24 | 55.97087 | 96.68290 | 39940 ft | 448 kts | 265° |
| 2026-04-27 07:24 | 55.96475 | 96.57164 | 39940 ft | 447 kts | 265° |
| 2026-04-27 07:25 | 55.95863 | 96.46190 | 39951 ft | 447 kts | 265° |
| 2026-04-27 07:25 | 55.95237 | 96.35168 | 39946 ft | 447 kts | 265° |
| 2026-04-27 07:26 | 55.94600 | 96.24136 | 39949 ft | 447 kts | 264° |
| 2026-04-27 07:26 | 55.93954 | 96.13107 | 39948 ft | 446 kts | 264° |
| 2026-04-27 07:27 | 55.93301 | 96.02146 | 39949 ft | 446 kts | 264° |
| 2026-04-27 07:27 | 55.92635 | 95.91130 | 39953 ft | 446 kts | 264° |
| 2026-04-27 07:28 | 55.91961 | 95.80136 | 39950 ft | 445 kts | 264° |
| 2026-04-27 07:28 | 55.91279 | 95.69172 | 39954 ft | 445 kts | 264° |
| 2026-04-27 07:29 | 55.90587 | 95.58223 | 39952 ft | 444 kts | 264° |
| 2026-04-27 07:29 | 55.89887 | 95.47318 | 39954 ft | 444 kts | 263° |
| 2026-04-27 07:30 | 55.89178 | 95.36399 | 39955 ft | 444 kts | 263° |
| 2026-04-27 07:30 | 55.88460 | 95.25507 | 39952 ft | 444 kts | 263° |
| 2026-04-27 07:31 | 55.87730 | 95.14576 | 39957 ft | 443 kts | 263° |
| 2026-04-27 07:31 | 55.86992 | 95.03684 | 39956 ft | 443 kts | 263° |
| 2026-04-27 07:32 | 55.86243 | 94.92781 | 39958 ft | 443 kts | 263° |
| 2026-04-27 07:32 | 55.85487 | 94.81903 | 39962 ft | 443 kts | 263° |
| 2026-04-27 07:33 | 55.84722 | 94.71041 | 39966 ft | 443 kts | 263° |
| 2026-04-27 07:33 | 55.83948 | 94.60187 | 39971 ft | 442 kts | 262° |
| 2026-04-27 07:34 | 55.83161 | 94.49302 | 39968 ft | 442 kts | 262° |
| 2026-04-27 07:34 | 55.82368 | 94.38469 | 39974 ft | 442 kts | 262° |
| 2026-04-27 07:35 | 55.81565 | 94.27634 | 39975 ft | 442 kts | 262° |
| 2026-04-27 07:35 | 55.80737 | 94.16883 | 39985 ft | 441 kts | 262° |
| 2026-04-27 07:36 | 55.79887 | 94.06078 | 39984 ft | 441 kts | 261° |
| 2026-04-27 07:36 | 55.79033 | 93.95305 | 39987 ft | 441 kts | 261° |
| 2026-04-27 07:37 | 55.78168 | 93.84505 | 39987 ft | 440 kts | 261° |
| 2026-04-27 07:37 | 55.77300 | 93.73770 | 39996 ft | 440 kts | 261° |
| 2026-04-27 07:38 | 55.76419 | 93.63004 | 39996 ft | 440 kts | 261° |
| 2026-04-27 07:38 | 55.75532 | 93.52275 | 39999 ft | 439 kts | 261° |
| 2026-04-27 07:39 | 55.74634 | 93.41534 | 40000 ft | 439 kts | 261° |
| 2026-04-27 07:39 | 55.73703 | 93.30823 | 40006 ft | 439 kts | 260° |
| 2026-04-27 07:40 | 55.72728 | 93.20311 | 40009 ft | 439 kts | 259° |
| 2026-04-27 07:40 | 55.71725 | 93.09597 | 40009 ft | 439 kts | 259° |
| 2026-04-27 07:41 | 55.70718 | 92.98842 | 40013 ft | 440 kts | 259° |
| 2026-04-27 07:41 | 55.69712 | 92.88154 | 40018 ft | 440 kts | 259° |
| 2026-04-27 07:42 | 55.68695 | 92.77458 | 40020 ft | 440 kts | 259° |
| 2026-04-27 07:42 | 55.67676 | 92.66853 | 40030 ft | 440 kts | 259° |
| 2026-04-27 07:43 | 55.66640 | 92.56171 | 40033 ft | 440 kts | 259° |
| 2026-04-27 07:43 | 55.65597 | 92.45486 | 40039 ft | 440 kts | 258° |
| 2026-04-27 07:44 | 55.64539 | 92.34762 | 40046 ft | 441 kts | 258° |
| 2026-04-27 07:44 | 55.63473 | 92.24095 | 40047 ft | 441 kts | 258° |
| 2026-04-27 07:45 | 55.62398 | 92.13405 | 40049 ft | 441 kts | 258° |
| 2026-04-27 07:45 | 55.61319 | 92.02769 | 40058 ft | 442 kts | 258° |
| 2026-04-27 07:46 | 55.60216 | 91.91998 | 40062 ft | 442 kts | 258° |
| 2026-04-27 07:46 | 55.59111 | 91.81309 | 40063 ft | 442 kts | 258° |
| 2026-04-27 07:47 | 55.57994 | 91.70604 | 40067 ft | 442 kts | 258° |
| 2026-04-27 07:47 | 55.56872 | 91.59927 | 40068 ft | 442 kts | 258° |
| 2026-04-27 07:48 | 55.55746 | 91.49315 | 40072 ft | 442 kts | 258° |
| 2026-04-27 07:48 | 55.54604 | 91.38644 | 40068 ft | 442 kts | 258° |
| 2026-04-27 07:49 | 55.53456 | 91.28013 | 40075 ft | 441 kts | 258° |
| 2026-04-27 07:49 | 55.52295 | 91.17356 | 40077 ft | 441 kts | 257° |
| 2026-04-27 07:50 | 55.51541 | 91.06713 | 40081 ft | 442 kts | 264° |
| 2026-04-27 07:50 | 55.51173 | 90.95814 | 40084 ft | 441 kts | 265° |
| 2026-04-27 07:51 | 55.50849 | 90.85037 | 40088 ft | 440 kts | 265° |
| 2026-04-27 07:51 | 55.50517 | 90.74282 | 40081 ft | 438 kts | 264° |
| 2026-04-27 07:52 | 55.50167 | 90.63546 | 40091 ft | 437 kts | 264° |
| 2026-04-27 07:52 | 55.49807 | 90.52852 | 40086 ft | 437 kts | 264° |
| 2026-04-27 07:53 | 55.49439 | 90.42234 | 40085 ft | 437 kts | 264° |
| 2026-04-27 07:53 | 55.49057 | 90.31476 | 40094 ft | 437 kts | 264° |
| 2026-04-27 07:54 | 55.48671 | 90.20825 | 40079 ft | 437 kts | 264° |
| 2026-04-27 07:54 | 55.48273 | 90.10128 | 40086 ft | 437 kts | 264° |
| 2026-04-27 07:55 | 55.47865 | 89.99419 | 40079 ft | 438 kts | 264° |
| 2026-04-27 07:55 | 55.47447 | 89.88706 | 40094 ft | 438 kts | 264° |
| 2026-04-27 07:56 | 55.47022 | 89.78027 | 40080 ft | 438 kts | 263° |
| 2026-04-27 07:56 | 55.46585 | 89.67310 | 40078 ft | 438 kts | 263° |
| 2026-04-27 07:57 | 55.46144 | 89.56696 | 40083 ft | 437 kts | 263° |
| 2026-04-27 07:57 | 55.45691 | 89.46016 | 40080 ft | 437 kts | 263° |
| 2026-04-27 07:58 | 55.45225 | 89.35258 | 40086 ft | 437 kts | 263° |
| 2026-04-27 07:58 | 55.44756 | 89.24647 | 40087 ft | 437 kts | 263° |
| 2026-04-27 07:59 | 55.44275 | 89.13984 | 40088 ft | 437 kts | 263° |
| 2026-04-27 07:59 | 55.43536 | 88.97995 | 40086 ft | 436 kts | 263° |
| 2026-04-27 08:00 | 55.43032 | 88.87347 | 40091 ft | 436 kts | 263° |
| 2026-04-27 08:00 | 55.42530 | 88.76711 | 40086 ft | 436 kts | 262° |
| 2026-04-27 08:01 | 55.42021 | 88.66078 | 40088 ft | 436 kts | 262° |
| 2026-04-27 08:01 | 55.41505 | 88.55501 | 40088 ft | 436 kts | 262° |
| 2026-04-27 08:02 | 55.40976 | 88.44859 | 40088 ft | 437 kts | 262° |
| 2026-04-27 08:02 | 55.40436 | 88.34195 | 40087 ft | 438 kts | 262° |
| 2026-04-27 08:03 | 55.39885 | 88.23525 | 40086 ft | 439 kts | 262° |
| 2026-04-27 08:03 | 55.39325 | 88.12840 | 40093 ft | 439 kts | 262° |
| 2026-04-27 08:04 | 55.38755 | 88.02139 | 40099 ft | 440 kts | 262° |
| 2026-04-27 08:04 | 55.38172 | 87.91398 | 40096 ft | 440 kts | 262° |
| 2026-04-27 08:05 | 55.37582 | 87.80695 | 40097 ft | 441 kts | 262° |
| 2026-04-27 08:05 | 55.36981 | 87.69968 | 40102 ft | 441 kts | 262° |
| 2026-04-27 08:06 | 55.36473 | 87.61043 | 40100 ft | 442 kts | 262° |
| 2026-04-27 08:06 | 55.35854 | 87.50269 | 40104 ft | 442 kts | 262° |
| 2026-04-27 08:07 | 55.35232 | 87.39538 | 40109 ft | 442 kts | 262° |
| 2026-04-27 08:07 | 55.34598 | 87.28772 | 40109 ft | 442 kts | 262° |
| 2026-04-27 08:08 | 55.33954 | 87.18024 | 40112 ft | 442 kts | 261° |
| 2026-04-27 08:08 | 55.33303 | 87.07305 | 40116 ft | 442 kts | 261° |
| 2026-04-27 08:09 | 55.32641 | 86.96572 | 40118 ft | 442 kts | 261° |
| 2026-04-27 08:09 | 55.31970 | 86.85849 | 40118 ft | 441 kts | 261° |
| 2026-04-27 08:10 | 55.31295 | 86.75212 | 40118 ft | 440 kts | 261° |
| 2026-04-27 08:10 | 55.30607 | 86.64539 | 40124 ft | 441 kts | 261° |
| 2026-04-27 08:11 | 55.29908 | 86.53822 | 40122 ft | 441 kts | 261° |
| 2026-04-27 08:11 | 55.29202 | 86.43139 | 40125 ft | 441 kts | 261° |
| 2026-04-27 08:12 | 55.28487 | 86.32469 | 40131 ft | 440 kts | 261° |
| 2026-04-27 08:12 | 55.27764 | 86.21824 | 40129 ft | 440 kts | 261° |
| 2026-04-27 08:13 | 55.27115 | 86.11129 | 40130 ft | 441 kts | 265° |
| 2026-04-27 08:13 | 55.27166 | 86.00345 | 40130 ft | 442 kts | 268° |
| 2026-04-27 08:14 | 55.27343 | 85.89569 | 40131 ft | 442 kts | 269° |
| 2026-04-27 08:14 | 55.27527 | 85.78865 | 40136 ft | 442 kts | 269° |
| 2026-04-27 08:15 | 55.27695 | 85.68123 | 40132 ft | 442 kts | 268° |
| 2026-04-27 08:15 | 55.27847 | 85.57316 | 40137 ft | 442 kts | 268° |
| 2026-04-27 08:16 | 55.27987 | 85.46556 | 40139 ft | 441 kts | 268° |
| 2026-04-27 08:16 | 55.28118 | 85.35794 | 40141 ft | 441 kts | 268° |
| 2026-04-27 08:17 | 55.28240 | 85.25026 | 40142 ft | 441 kts | 268° |
| 2026-04-27 08:17 | 55.28353 | 85.14249 | 40145 ft | 441 kts | 268° |
| 2026-04-27 08:18 | 55.28456 | 85.03486 | 40144 ft | 441 kts | 268° |
| 2026-04-27 08:18 | 55.28549 | 84.92735 | 40144 ft | 441 kts | 268° |
| 2026-04-27 08:19 | 55.28633 | 84.81958 | 40148 ft | 441 kts | 268° |
| 2026-04-27 08:19 | 55.28708 | 84.71189 | 40150 ft | 441 kts | 268° |
| 2026-04-27 08:20 | 55.28773 | 84.60498 | 40148 ft | 441 kts | 268° |
| 2026-04-27 08:20 | 55.28829 | 84.49752 | 40144 ft | 441 kts | 267° |
| 2026-04-27 08:21 | 55.28875 | 84.38980 | 40144 ft | 441 kts | 267° |
| 2026-04-27 08:21 | 55.28912 | 84.28231 | 40139 ft | 441 kts | 267° |
| 2026-04-27 08:22 | 55.28940 | 84.17464 | 40142 ft | 441 kts | 267° |
| 2026-04-27 08:22 | 55.28957 | 84.06724 | 40143 ft | 440 kts | 267° |
| 2026-04-27 08:23 | 55.28965 | 83.95978 | 40139 ft | 440 kts | 267° |
| 2026-04-27 08:23 | 55.28964 | 83.85304 | 40141 ft | 440 kts | 267° |
| 2026-04-27 08:24 | 55.28953 | 83.74571 | 40140 ft | 440 kts | 267° |
| 2026-04-27 08:24 | 55.28934 | 83.64083 | 40142 ft | 440 kts | 267° |
| 2026-04-27 08:25 | 55.28905 | 83.53336 | 40146 ft | 440 kts | 266° |
| 2026-04-27 08:25 | 55.28867 | 83.42574 | 40146 ft | 440 kts | 266° |
| 2026-04-27 08:26 | 55.28819 | 83.31872 | 40145 ft | 440 kts | 266° |
| 2026-04-27 08:26 | 55.28762 | 83.21106 | 40149 ft | 440 kts | 266° |
| 2026-04-27 08:27 | 55.28695 | 83.10369 | 40150 ft | 440 kts | 266° |
| 2026-04-27 08:27 | 55.28618 | 82.99628 | 40143 ft | 440 kts | 266° |
| 2026-04-27 08:28 | 55.28532 | 82.88875 | 40155 ft | 441 kts | 266° |
| 2026-04-27 08:28 | 55.28437 | 82.78110 | 40152 ft | 441 kts | 266° |
| 2026-04-27 08:29 | 55.28333 | 82.67366 | 40161 ft | 441 kts | 266° |
| 2026-04-27 08:29 | 55.28220 | 82.56684 | 40159 ft | 441 kts | 266° |
| 2026-04-27 08:30 | 55.28104 | 82.45905 | 40155 ft | 441 kts | 267° |
| 2026-04-27 08:30 | 55.28880 | 82.35205 | 40162 ft | 447 kts | 279° |
| 2026-04-27 08:31 | 55.30412 | 82.24602 | 40147 ft | 448 kts | 281° |
| 2026-04-27 08:31 | 55.32045 | 82.14049 | 40152 ft | 448 kts | 281° |
| 2026-04-27 08:32 | 55.33665 | 82.03488 | 40149 ft | 448 kts | 281° |
| 2026-04-27 08:32 | 55.35259 | 81.92905 | 40148 ft | 448 kts | 281° |
| 2026-04-27 08:33 | 55.36838 | 81.82298 | 40150 ft | 448 kts | 281° |
| 2026-04-27 08:33 | 55.38409 | 81.71668 | 40147 ft | 448 kts | 281° |
| 2026-04-27 08:34 | 55.39955 | 81.61142 | 40150 ft | 448 kts | 281° |
| 2026-04-27 08:34 | 55.41512 | 81.50476 | 40152 ft | 448 kts | 281° |
| 2026-04-27 08:35 | 55.43052 | 81.39847 | 40149 ft | 448 kts | 280° |
| 2026-04-27 08:35 | 55.44584 | 81.29211 | 40150 ft | 448 kts | 280° |
| 2026-04-27 08:36 | 55.46110 | 81.18542 | 40153 ft | 449 kts | 280° |
| 2026-04-27 08:36 | 55.47624 | 81.07866 | 40148 ft | 449 kts | 280° |
| 2026-04-27 08:37 | 55.49104 | 80.97161 | 40156 ft | 449 kts | 280° |
| 2026-04-27 08:37 | 55.50565 | 80.86470 | 40153 ft | 449 kts | 280° |
| 2026-04-27 08:38 | 55.52015 | 80.75819 | 40152 ft | 449 kts | 280° |
| 2026-04-27 08:38 | 55.53469 | 80.65087 | 40148 ft | 449 kts | 280° |
| 2026-04-27 08:39 | 55.54911 | 80.54375 | 40147 ft | 449 kts | 280° |
| 2026-04-27 08:39 | 55.56344 | 80.43648 | 40154 ft | 449 kts | 279° |
| 2026-04-27 08:40 | 55.57767 | 80.32914 | 40143 ft | 449 kts | 279° |
| 2026-04-27 08:40 | 55.59184 | 80.22148 | 40147 ft | 449 kts | 279° |
| 2026-04-27 08:41 | 55.60590 | 80.11384 | 40150 ft | 449 kts | 279° |
| 2026-04-27 08:41 | 55.61986 | 80.00619 | 40151 ft | 449 kts | 279° |
| 2026-04-27 08:42 | 55.62716 | 79.89742 | 40153 ft | 444 kts | 267° |
| 2026-04-27 08:42 | 55.61707 | 79.79035 | 40152 ft | 442 kts | 255° |
| 2026-04-27 08:43 | 55.60008 | 79.68578 | 40154 ft | 442 kts | 253° |
| 2026-04-27 08:43 | 55.58210 | 79.58216 | 40152 ft | 442 kts | 253° |
| 2026-04-27 08:44 | 55.56430 | 79.47901 | 40158 ft | 442 kts | 253° |
| 2026-04-27 08:44 | 55.54649 | 79.37499 | 40158 ft | 441 kts | 253° |
| 2026-04-27 08:45 | 55.52873 | 79.27130 | 40163 ft | 442 kts | 253° |
| 2026-04-27 08:45 | 55.51085 | 79.16760 | 40162 ft | 442 kts | 253° |
| 2026-04-27 08:46 | 55.49289 | 79.06408 | 40163 ft | 442 kts | 253° |
| 2026-04-27 08:46 | 55.47480 | 78.96037 | 40164 ft | 442 kts | 253° |
| 2026-04-27 08:47 | 55.45663 | 78.85685 | 40170 ft | 442 kts | 253° |
| 2026-04-27 08:47 | 55.43839 | 78.75353 | 40168 ft | 442 kts | 253° |
| 2026-04-27 08:48 | 55.42007 | 78.65035 | 40168 ft | 442 kts | 252° |
| 2026-04-27 08:48 | 55.40166 | 78.54725 | 40171 ft | 442 kts | 252° |
| 2026-04-27 08:49 | 55.38311 | 78.44396 | 40171 ft | 442 kts | 252° |
| 2026-04-27 08:49 | 55.36470 | 78.34148 | 40170 ft | 442 kts | 253° |
| 2026-04-27 08:50 | 55.35316 | 78.23539 | 40175 ft | 443 kts | 261° |
| 2026-04-27 08:50 | 55.34598 | 78.12748 | 40176 ft | 444 kts | 262° |
| 2026-04-27 08:51 | 55.33971 | 78.01955 | 40179 ft | 444 kts | 263° |
| 2026-04-27 08:51 | 55.33343 | 77.91140 | 40177 ft | 445 kts | 262° |
| 2026-04-27 08:52 | 55.32806 | 77.82176 | 40177 ft | 445 kts | 262° |
| 2026-04-27 08:52 | 55.32323 | 77.74271 | 40176 ft | 445 kts | 262° |
| 2026-04-27 08:53 | 55.31651 | 77.63449 | 40175 ft | 445 kts | 262° |
| 2026-04-27 08:53 | 55.30969 | 77.52638 | 40180 ft | 446 kts | 262° |
| 2026-04-27 08:54 | 55.30282 | 77.41869 | 40177 ft | 446 kts | 262° |
| 2026-04-27 08:54 | 55.29577 | 77.30985 | 40179 ft | 446 kts | 262° |
| 2026-04-27 08:55 | 55.28867 | 77.20179 | 40180 ft | 446 kts | 262° |
| 2026-04-27 08:55 | 55.28147 | 77.09356 | 40179 ft | 446 kts | 262° |
| 2026-04-27 08:56 | 55.27417 | 76.98549 | 40182 ft | 446 kts | 262° |
| 2026-04-27 08:56 | 55.26678 | 76.87737 | 39691 ft | 447 kts | 262° |
| 2026-04-27 08:57 | 55.25928 | 76.76915 | 38228 ft | 452 kts | 262° |
| 2026-04-27 08:57 | 55.25547 | 76.71457 | 37561 ft | 450 kts | 262° |
| 2026-04-27 08:57 | 55.25163 | 76.66026 | 36898 ft | 449 kts | 262° |
| 2026-04-27 08:58 | 55.24775 | 76.60605 | 36191 ft | 448 kts | 262° |
| 2026-04-27 08:58 | 55.24386 | 76.55221 | 35474 ft | 447 kts | 262° |
| 2026-04-27 08:58 | 55.23994 | 76.49792 | 34836 ft | 445 kts | 262° |
| 2026-04-27 08:58 | 55.23610 | 76.44448 | 34290 ft | 440 kts | 263° |
| 2026-04-27 08:59 | 55.23235 | 76.39172 | 33685 ft | 435 kts | 263° |
| 2026-04-27 08:59 | 55.22861 | 76.33936 | 33118 ft | 429 kts | 263° |
| 2026-04-27 08:59 | 55.22488 | 76.28793 | 32598 ft | 423 kts | 263° |
| 2026-04-27 08:59 | 55.22111 | 76.23687 | 32055 ft | 418 kts | 263° |
| 2026-04-27 09:00 | 55.21741 | 76.18732 | 31544 ft | 413 kts | 263° |
| 2026-04-27 09:00 | 55.21365 | 76.13749 | 31013 ft | 409 kts | 263° |
| 2026-04-27 09:00 | 55.20991 | 76.08843 | 30502 ft | 404 kts | 263° |
| 2026-04-27 09:00 | 55.20619 | 76.04005 | 29935 ft | 400 kts | 263° |
| 2026-04-27 09:01 | 55.20250 | 75.99212 | 29394 ft | 394 kts | 263° |
| 2026-04-27 09:01 | 55.19888 | 75.94524 | 28888 ft | 388 kts | 263° |
| 2026-04-27 09:01 | 55.19525 | 75.89836 | 28376 ft | 383 kts | 263° |
| 2026-04-27 09:01 | 55.19170 | 75.85273 | 27879 ft | 377 kts | 263° |
| 2026-04-27 09:02 | 55.18815 | 75.80744 | 27378 ft | 373 kts | 263° |
| 2026-04-27 09:02 | 55.18465 | 75.76292 | 26873 ft | 368 kts | 263° |
| 2026-04-27 09:02 | 55.18114 | 75.71865 | 26391 ft | 364 kts | 263° |
| 2026-04-27 09:02 | 55.17768 | 75.67506 | 25888 ft | 361 kts | 263° |
| 2026-04-27 09:03 | 55.17425 | 75.63187 | 25421 ft | 357 kts | 263° |
| 2026-04-27 09:03 | 55.17087 | 75.58899 | 24938 ft | 353 kts | 263° |
| 2026-04-27 09:03 | 55.16751 | 75.54674 | 24444 ft | 350 kts | 263° |
| 2026-04-27 09:03 | 55.16419 | 75.50464 | 23948 ft | 347 kts | 263° |
| 2026-04-27 09:04 | 55.16089 | 75.46307 | 23404 ft | 345 kts | 263° |
| 2026-04-27 09:04 | 55.15763 | 75.42243 | 22895 ft | 341 kts | 263° |
| 2026-04-27 09:04 | 55.15434 | 75.38152 | 22413 ft | 336 kts | 263° |
| 2026-04-27 09:04 | 55.15105 | 75.34070 | 21911 ft | 332 kts | 263° |
| 2026-04-27 09:05 | 55.14787 | 75.30152 | 21440 ft | 328 kts | 263° |
| 2026-04-27 09:05 | 55.14467 | 75.26228 | 20967 ft | 325 kts | 263° |
| 2026-04-27 09:05 | 55.14149 | 75.22344 | 20484 ft | 321 kts | 263° |
| 2026-04-27 09:05 | 55.13826 | 75.18445 | 20007 ft | 318 kts | 263° |
| 2026-04-27 09:06 | 55.13508 | 75.14683 | 19543 ft | 316 kts | 263° |
| 2026-04-27 09:06 | 55.13187 | 75.10904 | 19077 ft | 313 kts | 263° |
| 2026-04-27 09:06 | 55.12867 | 75.07109 | 18599 ft | 312 kts | 263° |
| 2026-04-27 09:06 | 55.12553 | 75.03379 | 18104 ft | 309 kts | 263° |
| 2026-04-27 09:07 | 55.12243 | 74.99677 | 17624 ft | 306 kts | 263° |
| 2026-04-27 09:07 | 55.11939 | 74.96073 | 17171 ft | 303 kts | 263° |
| 2026-04-27 09:07 | 55.11633 | 74.92442 | 16710 ft | 300 kts | 263° |
| 2026-04-27 09:07 | 55.11329 | 74.88849 | 16271 ft | 297 kts | 263° |
| 2026-04-27 09:08 | 55.11026 | 74.85289 | 15819 ft | 295 kts | 263° |
| 2026-04-27 09:08 | 55.10725 | 74.81752 | 15361 ft | 294 kts | 263° |
| 2026-04-27 09:08 | 55.10425 | 74.78237 | 14924 ft | 293 kts | 263° |
| 2026-04-27 09:08 | 55.10123 | 74.74724 | 14489 ft | 292 kts | 263° |
| 2026-04-27 09:09 | 55.09822 | 74.71229 | 14046 ft | 291 kts | 263° |
| 2026-04-27 09:09 | 55.09522 | 74.67750 | 13574 ft | 289 kts | 263° |
| 2026-04-27 09:09 | 55.09222 | 74.64286 | 13126 ft | 288 kts | 263° |
| 2026-04-27 09:09 | 55.08921 | 74.60823 | 12685 ft | 287 kts | 262° |
| 2026-04-27 09:10 | 55.08621 | 74.57373 | 12248 ft | 287 kts | 262° |
| 2026-04-27 09:10 | 55.08320 | 74.53941 | 11809 ft | 286 kts | 262° |
| 2026-04-27 09:10 | 55.08019 | 74.50523 | 11371 ft | 285 kts | 262° |
| 2026-04-27 09:10 | 55.07719 | 74.47127 | 11064 ft | 279 kts | 262° |
| 2026-04-27 09:11 | 55.07429 | 74.43844 | 10946 ft | 266 kts | 262° |
| 2026-04-27 09:11 | 55.07153 | 74.40731 | 10837 ft | 254 kts | 262° |
| 2026-04-27 09:11 | 55.06885 | 74.37741 | 10706 ft | 247 kts | 262° |
| 2026-04-27 09:11 | 55.06624 | 74.34824 | 10446 ft | 246 kts | 262° |
| 2026-04-27 09:12 | 55.06357 | 74.31832 | 10119 ft | 246 kts | 261° |
| 2026-04-27 09:12 | 55.06089 | 74.28850 | 9821 ft | 260 kts | 261° |
| 2026-04-27 09:12 | 55.05803 | 74.25679 | 9721 ft | 265 kts | 261° |
| 2026-04-27 09:12 | 55.05518 | 74.22545 | 9312 ft | 262 kts | 261° |
| 2026-04-27 09:13 | 55.05231 | 74.19381 | 8770 ft | 262 kts | 261° |
| 2026-04-27 09:13 | 55.04948 | 74.16260 | 8394 ft | 260 kts | 261° |
| 2026-04-27 09:13 | 55.04666 | 74.13161 | 8040 ft | 259 kts | 261° |
| 2026-04-27 09:13 | 55.04384 | 74.10073 | 7713 ft | 258 kts | 261° |
| 2026-04-27 09:14 | 55.04101 | 74.06981 | 7373 ft | 257 kts | 261° |
| 2026-04-27 09:14 | 55.03889 | 74.03904 | 7116 ft | 255 kts | 265° |
| 2026-04-27 09:14 | 55.03762 | 74.00819 | 6830 ft | 254 kts | 266° |
| 2026-04-27 09:14 | 55.03640 | 73.97803 | 6531 ft | 253 kts | 265° |
| 2026-04-27 09:15 | 55.03503 | 73.94737 | 6169 ft | 252 kts | 265° |
| 2026-04-27 09:15 | 55.03359 | 73.91700 | 5783 ft | 251 kts | 265° |
| 2026-04-27 09:15 | 55.03215 | 73.88693 | 5419 ft | 250 kts | 265° |
| 2026-04-27 09:15 | 55.03066 | 73.85659 | 5067 ft | 249 kts | 265° |
| 2026-04-27 09:16 | 55.02918 | 73.82682 | 4619 ft | 243 kts | 265° |
| 2026-04-27 09:16 | 55.02768 | 73.79729 | 4238 ft | 247 kts | 265° |
| 2026-04-27 09:16 | 55.02682 | 73.76740 | 3877 ft | 247 kts | 266° |
| 2026-04-27 09:16 | 55.02420 | 73.73790 | 3667 ft | 246 kts | 259° |
| 2026-04-27 09:17 | 55.02052 | 73.70952 | 3541 ft | 234 kts | 258° |
| 2026-04-27 09:17 | 55.01710 | 73.68242 | 3418 ft | 224 kts | 258° |
| 2026-04-27 09:17 | 55.01358 | 73.65648 | 3359 ft | 215 kts | 257° |
| 2026-04-27 09:17 | 55.01023 | 73.63198 | 3252 ft | 205 kts | 258° |
| 2026-04-27 09:18 | 55.00711 | 73.60819 | 3209 ft | 196 kts | 259° |
| 2026-04-27 09:18 | 55.00417 | 73.58578 | 3194 ft | 180 kts | 259° |
| 2026-04-27 09:18 | 55.00150 | 73.56570 | 3026 ft | 162 kts | 258° |
| 2026-04-27 09:18 | 54.99904 | 73.54749 | 2808 ft | 147 kts | 259° |
| 2026-04-27 09:19 | 54.99676 | 73.53086 | 2600 ft | 135 kts | 258° |
| 2026-04-27 09:19 | 54.99468 | 73.51549 | 2425 ft | 126 kts | 257° |
| 2026-04-27 09:19 | 54.99276 | 73.50135 | 2278 ft | 117 kts | 259° |
| 2026-04-27 09:19 | 54.99092 | 73.48773 | 2146 ft | 117 kts | 259° |
| 2026-04-27 09:20 | 54.98907 | 73.47383 | 1937 ft | 115 kts | 258° |
| 2026-04-27 09:20 | 54.98727 | 73.46059 | 1830 ft | 115 kts | 258° |
| 2026-04-27 09:20 | 54.98543 | 73.44699 | 1668 ft | 116 kts | 259° |
| 2026-04-27 09:20 | 54.98361 | 73.43337 | 1507 ft | 117 kts | 258° |
| 2026-04-27 09:21 | 54.98175 | 73.41939 | 1352 ft | 118 kts | 258° |
| 2026-04-27 09:21 | 54.97987 | 73.40542 | 1188 ft | 122 kts | 258° |
| 2026-04-27 09:21 | 54.97795 | 73.39129 | 1038 ft | 118 kts | 258° |
| 2026-04-27 09:21 | 54.97611 | 73.37749 | 893 ft | 117 kts | 258° |
| 2026-04-27 09:22 | 54.97429 | 73.36377 | 741 ft | 115 kts | 258° |
| 2026-04-27 09:22 | 54.97244 | 73.34996 | 587 ft | 119 kts | 260° |
| 2026-04-27 09:22 | 54.97062 | 73.33633 | 489 ft | 117 kts | 258° |
| 2026-04-27 09:22 | 54.96851 | 73.32193 | 329 ft | 122 kts | 265° |
| 2026-04-27 09:23 | 54.96696 | 73.30910 | 317 ft | 94 kts | 258° |
| 2026-04-27 09:23 | 54.96601 | 73.30194 | 322 ft | 24 kts | 257° |
| 2026-04-27 09:23 | 54.96564 | 73.29921 | 323 ft | 23 kts | 257° |
| 2026-04-27 09:23 | 54.96527 | 73.29644 | 323 ft | 24 kts | 257° |
| 2026-04-27 09:24 | 54.96491 | 73.29377 | 324 ft | 15 kts | 257° |
| 2026-04-27 09:24 | 54.96471 | 73.29250 | 323 ft | 12 kts | 247° |
| 2026-04-27 09:24 | 54.96401 | 73.29180 | 324 ft | 13 kts | 186° |
| 2026-04-27 09:24 | 54.96346 | 73.29186 | 325 ft | 8 kts | 174° |
| 2026-04-27 09:25 | 54.96290 | 73.29207 | 323 ft | 0 kts | 167° |